createdAt,value
2022-08-19T00:01:39.555Z,2.75
2022-08-19T00:04:10.022Z,2.38
2022-08-19T00:06:40.131Z,2.40
2022-08-19T00:09:09.308Z,2.58
2022-08-19T00:11:38.672Z,2.65
2022-08-19T00:14:08.375Z,2.40
2022-08-19T00:16:35.986Z,2.85
2022-08-19T00:19:04.233Z,2.40
2022-08-19T00:21:31.303Z,2.90
2022-08-19T00:23:59.284Z,2.60
2022-08-19T00:26:28.264Z,2.00
2022-08-19T00:28:55.946Z,1.77
2022-08-19T00:31:22.974Z,2.08
2022-08-19T00:33:53.133Z,1.70
2022-08-19T00:36:20.365Z,1.95
2022-08-19T00:38:55.007Z,2.00
2022-08-19T00:41:24.790Z,2.35
2022-08-19T00:44:13.679Z,2.08
2022-08-19T00:46:43.301Z,1.70
2022-08-19T00:49:26.059Z,1.80
2022-08-19T00:51:58.689Z,1.58
2022-08-19T00:54:31.123Z,1.60
2022-08-19T00:56:59.306Z,1.50
2022-08-19T00:59:56.373Z,1.52
2022-08-19T01:02:13.814Z,1.58
2022-08-19T01:04:40.944Z,1.70
2022-08-19T01:07:08.908Z,1.10
2022-08-19T01:09:41.971Z,1.30
2022-08-19T01:12:11.284Z,1.27
2022-08-19T01:14:40.897Z,1.50
2022-08-19T01:17:11.097Z,2.30
2022-08-19T01:19:44.066Z,1.42
2022-08-19T01:22:43.952Z,2.47
2022-08-19T01:25:14.864Z,2.25
2022-08-19T01:27:45.859Z,2.60
2022-08-19T01:30:17.190Z,2.72
2022-08-19T01:32:44.484Z,2.92
2022-08-19T01:35:13.390Z,2.72
2022-08-19T01:37:49.617Z,2.72
2022-08-19T01:40:18.030Z,2.15
2022-08-19T01:42:44.974Z,2.97
2022-08-19T01:45:12.123Z,2.70
2022-08-19T01:47:39.584Z,2.22
2022-08-19T01:50:08.915Z,2.35
2022-08-19T01:52:41.539Z,2.60
2022-08-19T01:55:12.195Z,2.47
2022-08-19T01:57:40.381Z,1.85
2022-08-19T02:00:11.212Z,2.15
2022-08-19T02:02:38.483Z,2.97
2022-08-19T02:05:08.313Z,2.70
2022-08-19T02:07:39.482Z,2.40
2022-08-19T02:10:12.389Z,2.55
2022-08-19T02:12:40.458Z,3.08
2022-08-19T02:15:08.772Z,2.28
2022-08-19T02:17:35.843Z,2.15
2022-08-19T02:20:03.212Z,2.60
2022-08-19T02:22:30.132Z,2.67
2022-08-19T02:24:57.022Z,2.65
2022-08-19T02:27:24.495Z,3.40
2022-08-19T02:29:52.346Z,3.05
2022-08-19T02:32:21.151Z,2.22
2022-08-19T02:34:48.862Z,2.75
2022-08-19T02:37:35.125Z,2.78
2022-08-19T02:40:03.387Z,2.20
2022-08-19T02:42:39.774Z,1.80
2022-08-19T02:45:07.073Z,1.60
2022-08-19T02:47:34.102Z,1.77
2022-08-19T02:50:02.853Z,1.42
2022-08-19T02:52:29.905Z,1.38
2022-08-19T02:54:58.612Z,1.80
2022-08-19T02:57:25.705Z,1.10
2022-08-19T02:59:52.711Z,1.20
2022-08-19T03:02:19.683Z,1.35
2022-08-19T03:04:50.143Z,1.60
2022-08-19T03:07:18.751Z,1.63
2022-08-19T03:09:45.792Z,1.80
2022-08-19T03:12:12.694Z,1.65
2022-08-19T03:14:39.940Z,1.85
2022-08-19T03:17:06.856Z,1.73
2022-08-19T03:19:33.789Z,1.50
2022-08-19T03:22:00.766Z,1.83
2022-08-19T03:24:27.852Z,1.27
2022-08-19T03:26:59.644Z,1.25
2022-08-19T03:29:30.837Z,1.23
2022-08-19T03:32:04.800Z,1.08
2022-08-19T03:34:35.259Z,1.02
2022-08-19T03:37:06.612Z,1.20
2022-08-19T03:39:34.938Z,1.30
2022-08-19T03:42:38.512Z,1.20
2022-08-19T03:44:50.765Z,1.10
2022-08-19T03:47:18.080Z,1.05
2022-08-19T03:49:45.199Z,1.30
2022-08-19T03:52:12.202Z,0.90
2022-08-19T03:54:39.713Z,1.30
2022-08-19T03:57:07.274Z,0.85
2022-08-19T03:59:36.585Z,1.27
2022-08-19T04:02:10.255Z,1.10
2022-08-19T04:04:39.194Z,1.10
2022-08-19T04:07:06.254Z,1.10
2022-08-19T04:09:35.679Z,1.10
2022-08-19T04:12:02.702Z,1.38
2022-08-19T04:14:34.814Z,1.90
2022-08-19T04:17:04.512Z,1.50
2022-08-19T04:19:32.572Z,1.60
2022-08-19T04:22:00.008Z,1.83
2022-08-19T04:24:27.203Z,2.03
2022-08-19T04:26:54.145Z,1.90
2022-08-19T04:29:26.070Z,2.00
2022-08-19T04:31:55.179Z,1.85
2022-08-19T04:34:24.391Z,2.33
2022-08-19T04:36:52.775Z,2.50
2022-08-19T04:39:23.189Z,3.22
2022-08-19T04:42:08.860Z,1.92
2022-08-19T04:44:44.042Z,1.58
2022-08-19T04:47:13.609Z,1.60
2022-08-19T04:49:41.147Z,2.20
2022-08-19T04:52:09.568Z,2.40
2022-08-19T04:54:38.186Z,2.20
2022-08-19T04:57:08.194Z,1.92
2022-08-19T04:59:35.879Z,2.03
2022-08-19T05:02:03.318Z,2.47
2022-08-19T05:04:33.917Z,2.90
2022-08-19T05:07:02.269Z,2.92
2022-08-19T05:09:55.644Z,2.80
2022-08-19T05:12:18.777Z,3.45
2022-08-19T05:14:48.410Z,3.60
2022-08-19T05:17:37.514Z,3.38
2022-08-19T05:20:23.961Z,2.80
2022-08-19T05:22:51.081Z,2.92
2022-08-19T05:25:21.181Z,3.28
2022-08-19T05:27:49.158Z,2.55
2022-08-19T05:30:16.660Z,2.20
2022-08-19T05:32:45.343Z,2.70
2022-08-19T05:35:12.843Z,2.80
2022-08-19T05:37:41.544Z,2.13
2022-08-19T05:40:09.945Z,2.60
2022-08-19T05:42:36.941Z,2.35
2022-08-19T05:45:05.614Z,2.03
2022-08-19T05:47:33.286Z,2.50
2022-08-19T05:50:00.510Z,2.97
2022-08-19T05:52:31.052Z,2.30
2022-08-19T05:54:58.792Z,2.92
2022-08-19T05:57:25.850Z,2.00
2022-08-19T05:59:58.373Z,2.10
2022-08-19T06:02:32.089Z,2.47
2022-08-19T06:04:59.403Z,2.30
2022-08-19T06:07:26.401Z,1.67
2022-08-19T06:10:00.066Z,1.70
2022-08-19T06:12:34.215Z,2.20
2022-08-19T06:15:07.955Z,2.70
2022-08-19T06:17:36.192Z,3.13
2022-08-19T06:20:10.105Z,3.33
2022-08-19T06:22:41.627Z,2.58
2022-08-19T06:25:10.340Z,2.80
2022-08-19T06:27:48.296Z,2.55
2022-08-19T06:30:25.273Z,2.10
2022-08-19T06:32:52.376Z,1.73
2022-08-19T06:35:20.132Z,2.30
2022-08-19T06:37:47.225Z,2.90
2022-08-19T06:40:14.375Z,2.33
2022-08-19T06:42:44.392Z,2.60
2022-08-19T06:45:24.598Z,3.50
2022-08-19T06:47:57.050Z,2.85
2022-08-19T06:50:25.126Z,3.10
2022-08-19T06:52:53.144Z,3.75
2022-08-19T06:55:20.565Z,3.25
2022-08-19T06:57:48.797Z,2.80
2022-08-19T07:00:15.989Z,2.10
2022-08-19T07:02:48.257Z,3.10
2022-08-19T07:05:23.356Z,2.38
2022-08-19T07:07:51.168Z,2.70
2022-08-19T07:10:18.814Z,2.80
2022-08-19T07:12:46.249Z,2.83
2022-08-19T07:15:13.844Z,4.10
2022-08-19T07:17:41.800Z,3.70
2022-08-19T07:20:10.094Z,4.35
2022-08-19T07:22:38.650Z,4.45
2022-08-19T07:25:08.189Z,3.30
2022-08-19T07:27:35.637Z,3.03
2022-08-19T07:30:02.974Z,4.32
2022-08-19T07:32:30.342Z,4.20
2022-08-19T07:34:57.713Z,3.03
2022-08-19T07:37:32.495Z,2.97
2022-08-19T07:40:00.549Z,4.60
2022-08-19T07:42:27.769Z,4.30
2022-08-19T07:44:54.673Z,2.95
2022-08-19T07:47:49.616Z,3.25
2022-08-19T07:50:12.632Z,4.00
2022-08-19T07:52:40.746Z,3.65
2022-08-19T07:55:11.475Z,4.03
2022-08-19T07:57:57.139Z,4.45
2022-08-19T08:00:24.908Z,3.85
2022-08-19T08:02:55.544Z,5.50
2022-08-19T08:05:43.874Z,4.60
2022-08-19T08:08:44.241Z,5.10
2022-08-19T08:11:20.545Z,3.50
2022-08-19T08:14:00.546Z,3.42
2022-08-19T08:16:32.383Z,4.45
2022-08-19T08:18:59.651Z,3.53
2022-08-19T08:21:26.632Z,5.50
2022-08-19T08:23:56.936Z,5.47
2022-08-19T08:26:26.236Z,5.40
2022-08-19T08:28:54.438Z,6.65
2022-08-19T08:31:22.152Z,7.22
2022-08-19T08:33:49.444Z,7.22
2022-08-19T08:36:16.579Z,5.22
2022-08-19T08:38:46.825Z,5.57
2022-08-19T08:41:39.202Z,4.50
2022-08-19T08:44:07.105Z,5.05
2022-08-19T08:46:42.878Z,4.63
2022-08-19T08:49:52.842Z,4.93
2022-08-19T08:52:32.023Z,8.90
2022-08-19T08:55:03.297Z,9.45
2022-08-19T08:57:49.869Z,8.82
2022-08-19T09:00:21.955Z,9.88
2022-08-19T09:02:50.522Z,9.27
2022-08-19T09:05:22.637Z,8.68
2022-08-19T09:08:09.844Z,7.47
2022-08-19T09:10:55.245Z,9.88
2022-08-19T09:13:28.526Z,9.95
2022-08-19T09:16:04.283Z,7.88
2022-08-19T09:19:03.260Z,7.20
2022-08-19T09:21:34.315Z,8.15
2022-08-19T09:24:03.470Z,10.07
2022-08-19T09:26:47.610Z,8.60
2022-08-19T09:29:18.920Z,8.98
2022-08-19T09:31:46.106Z,7.60
2022-08-19T09:34:21.056Z,8.00
2022-08-19T09:36:54.807Z,6.88
2022-08-19T09:39:22.108Z,8.18
2022-08-19T09:41:51.220Z,6.85
2022-08-19T09:44:19.291Z,6.03
2022-08-19T09:46:48.189Z,6.82
2022-08-19T09:49:18.322Z,5.47
2022-08-19T09:51:50.335Z,7.40
2022-08-19T09:54:23.499Z,5.45
2022-08-19T09:56:52.547Z,4.40
2022-08-19T09:59:19.605Z,6.47
2022-08-19T10:01:46.656Z,6.47
2022-08-19T10:04:19.956Z,6.55
2022-08-19T10:06:48.613Z,6.38
2022-08-19T10:09:34.146Z,6.57
2022-08-19T10:12:03.225Z,5.82
2022-08-19T10:14:32.056Z,6.05
2022-08-19T10:16:59.322Z,7.05
2022-08-19T10:19:26.854Z,4.75
2022-08-19T10:22:00.341Z,4.15
2022-08-19T10:24:29.393Z,3.50
2022-08-19T10:26:59.631Z,4.80
2022-08-19T10:29:31.980Z,4.82
2022-08-19T10:32:09.420Z,4.93
2022-08-19T10:34:48.303Z,4.85
2022-08-19T10:37:23.725Z,4.97
2022-08-19T10:39:56.603Z,3.83
2022-08-19T10:42:23.709Z,3.13
2022-08-19T10:44:51.822Z,3.05
2022-08-19T10:47:25.483Z,2.90
2022-08-19T10:50:13.411Z,3.03
2022-08-19T10:52:49.014Z,4.10
2022-08-19T10:55:41.432Z,3.78
2022-08-19T10:58:17.219Z,3.42
2022-08-19T11:00:52.001Z,3.00
2022-08-19T11:03:19.722Z,3.05
2022-08-19T11:05:46.848Z,3.00
2022-08-19T11:08:18.195Z,3.38
2022-08-19T11:10:52.613Z,3.10
2022-08-19T11:13:19.668Z,3.28
2022-08-19T11:15:47.293Z,3.03
2022-08-19T11:18:14.393Z,3.05
2022-08-19T11:20:41.538Z,2.78
2022-08-19T11:23:08.656Z,2.47
2022-08-19T11:25:36.841Z,2.28
2022-08-19T11:28:03.949Z,3.03
2022-08-19T11:30:30.947Z,3.83
2022-08-19T11:32:57.773Z,3.28
2022-08-19T11:35:24.898Z,3.30
2022-08-19T11:37:51.915Z,3.00
2022-08-19T11:40:19.092Z,2.92
2022-08-19T11:42:57.993Z,2.58
2022-08-19T11:45:30.230Z,2.53
2022-08-19T11:47:58.362Z,3.00
2022-08-19T11:50:25.752Z,3.53
2022-08-19T11:52:56.528Z,3.10
2022-08-19T11:55:24.032Z,2.17
2022-08-19T11:57:51.262Z,2.63
2022-08-19T12:00:18.319Z,2.40
2022-08-19T12:02:45.291Z,2.25
2022-08-19T12:05:13.260Z,2.42
2022-08-19T12:07:42.491Z,2.35
2022-08-19T12:10:10.703Z,2.42
2022-08-19T12:12:41.530Z,2.38
2022-08-19T12:15:09.392Z,2.28
2022-08-19T12:17:36.243Z,2.60
2022-08-19T12:20:04.668Z,2.45
2022-08-19T12:22:31.587Z,2.25
2022-08-19T12:24:59.596Z,2.17
2022-08-19T12:27:32.138Z,2.65
2022-08-19T12:30:15.085Z,2.03
2022-08-19T12:32:42.176Z,2.38
2022-08-19T12:35:11.546Z,2.50
2022-08-19T12:37:39.523Z,2.45
2022-08-19T12:40:07.215Z,1.85
2022-08-19T12:42:36.718Z,1.92
2022-08-19T12:45:05.873Z,2.20
2022-08-19T12:47:33.502Z,2.33
2022-08-19T12:50:07.649Z,3.08
2022-08-19T12:52:34.561Z,2.70
2022-08-19T12:55:01.763Z,2.55
2022-08-19T12:57:32.909Z,2.25
2022-08-19T13:00:11.286Z,2.15
2022-08-19T13:02:40.087Z,1.80
2022-08-19T13:05:09.898Z,2.00
2022-08-19T13:07:39.500Z,2.35
2022-08-19T13:10:12.941Z,2.58
2022-08-19T13:12:41.934Z,3.00
2022-08-19T13:15:10.924Z,2.72
2022-08-19T13:17:39.546Z,2.10
2022-08-19T13:20:09.487Z,2.40
2022-08-19T13:22:37.131Z,2.42
2022-08-19T13:25:06.411Z,2.40
2022-08-19T13:27:33.951Z,2.33
2022-08-19T13:30:20.642Z,2.63
2022-08-19T13:33:06.270Z,2.33
2022-08-19T13:35:33.534Z,2.30
2022-08-19T13:38:02.080Z,1.70
2022-08-19T13:40:30.450Z,2.58
2022-08-19T13:42:57.610Z,2.30
2022-08-19T13:45:26.400Z,2.17
2022-08-19T13:47:59.272Z,2.67
2022-08-19T13:50:32.641Z,1.90
2022-08-19T13:53:00.587Z,2.10
2022-08-19T13:55:28.233Z,1.70
2022-08-19T13:57:58.332Z,1.63
2022-08-19T14:00:27.582Z,1.83
2022-08-19T14:02:57.106Z,1.30
2022-08-19T14:05:25.821Z,1.80
2022-08-19T14:07:53.197Z,1.58
2022-08-19T14:10:21.798Z,2.10
2022-08-19T14:12:49.019Z,1.85
2022-08-19T14:15:16.818Z,1.80
2022-08-19T14:17:47.742Z,2.13
2022-08-19T14:20:17.519Z,1.80
2022-08-19T14:22:47.066Z,2.00
2022-08-19T14:25:20.414Z,2.75
2022-08-19T14:27:48.533Z,2.10
2022-08-19T14:30:21.166Z,2.78
2022-08-19T14:32:48.101Z,2.45
2022-08-19T14:35:17.314Z,2.75
2022-08-19T14:37:46.165Z,2.53
2022-08-19T14:40:18.125Z,3.15
2022-08-19T14:42:45.460Z,3.10
2022-08-19T14:45:13.512Z,3.08
2022-08-19T14:47:40.790Z,3.15
2022-08-19T14:50:10.629Z,3.35
2022-08-19T14:52:48.949Z,2.80
2022-08-19T14:55:19.808Z,2.75
2022-08-19T14:57:46.819Z,3.42
2022-08-19T15:00:15.020Z,3.30
2022-08-19T15:02:45.153Z,3.20
2022-08-19T15:05:13.693Z,3.40
2022-08-19T15:07:41.073Z,3.50
2022-08-19T15:10:11.824Z,3.47
2022-08-19T15:12:44.256Z,3.35
2022-08-19T15:15:15.685Z,3.17
2022-08-19T15:17:46.504Z,2.70
2022-08-19T15:20:20.144Z,3.72
2022-08-19T15:22:47.548Z,3.33
2022-08-19T15:25:17.487Z,2.63
2022-08-19T15:27:44.409Z,3.10
2022-08-19T15:30:12.460Z,3.63
2022-08-19T15:32:40.177Z,3.50
2022-08-19T15:35:17.437Z,3.35
2022-08-19T15:37:44.894Z,3.15
2022-08-19T15:40:12.396Z,3.22
2022-08-19T15:42:42.553Z,3.00
2022-08-19T15:45:11.402Z,2.55
2022-08-19T15:47:39.825Z,2.88
2022-08-19T15:50:17.365Z,2.45
2022-08-19T15:52:59.633Z,3.17
2022-08-19T15:55:34.750Z,3.13
2022-08-19T15:58:29.927Z,2.60
2022-08-19T16:01:24.571Z,2.50
2022-08-19T16:04:15.880Z,2.00
2022-08-19T16:07:02.567Z,2.92
2022-08-19T16:09:32.363Z,3.33
2022-08-19T16:12:08.669Z,3.50
2022-08-19T16:14:39.255Z,3.42
2022-08-19T16:17:07.217Z,3.58
2022-08-19T16:19:34.893Z,2.92
2022-08-19T16:22:01.881Z,3.15
2022-08-19T16:24:29.707Z,3.47
2022-08-19T16:26:57.777Z,2.75
2022-08-19T16:29:34.276Z,3.88
2022-08-19T16:32:12.081Z,2.70
2022-08-19T16:34:41.514Z,2.78
2022-08-19T16:37:10.265Z,3.13
2022-08-19T16:39:37.560Z,2.67
2022-08-19T16:42:07.509Z,3.60
2022-08-19T16:44:35.277Z,3.85
2022-08-19T16:47:02.725Z,3.80
2022-08-19T16:49:53.915Z,3.67
2022-08-19T16:52:19.171Z,4.53
2022-08-19T16:54:46.940Z,4.30
2022-08-19T16:57:13.989Z,3.60
2022-08-19T16:59:42.606Z,3.50
2022-08-19T17:02:20.221Z,3.40
2022-08-19T17:04:57.681Z,3.55
2022-08-19T17:07:28.080Z,3.17
2022-08-19T17:09:55.513Z,4.03
2022-08-19T17:12:30.236Z,3.58
2022-08-19T17:14:58.594Z,3.83
2022-08-19T17:17:28.898Z,3.75
2022-08-19T17:19:57.063Z,3.65
2022-08-19T17:22:23.865Z,3.90
2022-08-19T17:24:50.735Z,3.75
2022-08-19T17:27:19.901Z,3.67
2022-08-19T17:29:47.265Z,3.53
2022-08-19T17:32:15.749Z,4.25
2022-08-19T17:34:42.777Z,3.70
2022-08-19T17:37:09.621Z,4.00
2022-08-19T17:39:39.532Z,4.53
2022-08-19T17:42:08.171Z,4.68
2022-08-19T17:44:36.782Z,4.47
2022-08-19T17:47:04.453Z,4.00
2022-08-19T17:49:32.614Z,3.78
2022-08-19T17:52:00.822Z,3.90
2022-08-19T17:54:33.353Z,3.83
2022-08-19T17:57:01.466Z,3.65
2022-08-19T17:59:30.026Z,3.70
2022-08-19T18:01:57.839Z,3.42
2022-08-19T18:04:26.365Z,3.97
2022-08-19T18:06:55.641Z,3.85
2022-08-19T18:09:30.113Z,4.63
2022-08-19T18:12:13.491Z,3.80
2022-08-19T18:14:41.720Z,3.45
2022-08-19T18:17:11.512Z,3.83
2022-08-19T18:19:42.745Z,3.35
2022-08-19T18:22:36.743Z,4.20
2022-08-19T18:25:08.793Z,3.28
2022-08-19T18:27:36.459Z,3.53
2022-08-19T18:30:05.562Z,3.67
2022-08-19T18:32:36.789Z,4.35
2022-08-19T18:35:10.265Z,4.22
2022-08-19T18:37:41.771Z,3.72
2022-08-19T18:40:30.102Z,3.28
2022-08-19T18:43:15.453Z,3.20
2022-08-19T18:46:02.460Z,2.75
2022-08-19T18:48:48.324Z,2.35
2022-08-19T18:51:17.487Z,1.88
2022-08-19T18:53:46.607Z,1.92
2022-08-19T18:56:15.906Z,2.08
2022-08-19T18:58:43.767Z,1.70
2022-08-19T19:01:16.972Z,1.80
2022-08-19T19:03:46.997Z,1.60
2022-08-19T19:06:19.047Z,1.88
2022-08-19T19:08:47.428Z,1.60
2022-08-19T19:11:20.743Z,1.60
2022-08-19T19:13:49.405Z,2.00
2022-08-19T19:16:18.479Z,1.67
2022-08-19T19:18:52.514Z,1.95
2022-08-19T19:21:24.613Z,1.80
2022-08-19T19:23:53.209Z,1.70
2022-08-19T19:26:24.607Z,1.80
2022-08-19T19:28:51.841Z,2.33
2022-08-19T19:31:26.889Z,2.10
2022-08-19T19:33:59.706Z,2.08
2022-08-19T19:36:29.328Z,2.92
2022-08-19T19:38:56.484Z,2.80
2022-08-19T19:41:24.668Z,2.42
2022-08-19T19:44:09.902Z,1.90
2022-08-19T19:46:42.717Z,2.30
2022-08-19T19:49:10.814Z,2.17
2022-08-19T19:51:41.115Z,1.95
2022-08-19T19:54:13.690Z,2.20
2022-08-19T19:56:43.569Z,2.20
2022-08-19T19:59:10.694Z,1.92
2022-08-19T20:01:37.779Z,1.40
2022-08-19T20:04:05.137Z,1.40
2022-08-19T20:06:35.214Z,1.65
2022-08-19T20:09:08.266Z,1.70
2022-08-19T20:11:56.252Z,1.67
2022-08-19T20:14:26.455Z,1.58
2022-08-19T20:16:57.777Z,1.30
2022-08-19T20:19:31.376Z,1.50
2022-08-19T20:21:58.587Z,1.50
2022-08-19T20:24:32.635Z,1.30
2022-08-19T20:27:04.233Z,0.95
2022-08-19T20:29:38.811Z,0.80
2022-08-19T20:32:09.915Z,0.90
2022-08-19T20:34:37.683Z,0.90
2022-08-19T20:37:05.134Z,0.70
2022-08-19T20:39:32.337Z,0.80
2022-08-19T20:42:00.976Z,0.75
2022-08-19T20:44:27.922Z,0.50
2022-08-19T20:46:57.493Z,0.68
2022-08-19T20:49:27.229Z,0.75
2022-08-19T20:51:56.326Z,0.57
2022-08-19T20:54:24.300Z,0.80
2022-08-19T20:56:51.842Z,0.60
2022-08-19T20:59:20.192Z,0.60
2022-08-19T21:01:47.811Z,0.60
2022-08-19T21:04:15.211Z,0.65
2022-08-19T21:06:45.452Z,0.82
2022-08-19T21:09:13.849Z,0.70
2022-08-19T21:11:41.258Z,0.50
2022-08-19T21:14:11.113Z,0.60
2022-08-19T21:16:38.021Z,0.60
2022-08-19T21:19:05.354Z,0.60
2022-08-19T21:21:33.345Z,0.73
2022-08-19T21:24:01.292Z,0.50
2022-08-19T21:26:28.370Z,0.60
2022-08-19T21:28:55.302Z,1.08
2022-08-19T21:31:22.298Z,0.80
2022-08-19T21:33:49.232Z,1.00
2022-08-19T21:36:17.223Z,0.90
2022-08-19T21:38:44.143Z,0.90
2022-08-19T21:41:11.315Z,0.90
2022-08-19T21:43:39.011Z,0.90
2022-08-19T21:46:06.504Z,1.00
2022-08-19T21:48:33.628Z,1.15
2022-08-19T21:51:00.575Z,0.90
2022-08-19T21:53:31.411Z,0.70
2022-08-19T21:56:01.632Z,0.60
2022-08-19T21:58:30.497Z,0.60
2022-08-19T22:01:05.830Z,0.60
2022-08-19T22:03:34.171Z,0.90
2022-08-19T22:06:04.369Z,0.70
2022-08-19T22:08:31.666Z,1.10
2022-08-19T22:11:01.836Z,0.75
2022-08-19T22:13:31.183Z,0.77
2022-08-19T22:15:58.239Z,1.10
2022-08-19T22:18:25.415Z,0.90
2022-08-19T22:20:52.328Z,0.70
2022-08-19T22:23:19.330Z,0.93
2022-08-19T22:25:48.584Z,0.90
2022-08-19T22:28:18.742Z,0.70
2022-08-19T22:30:52.410Z,0.60
2022-08-19T22:33:22.618Z,0.80
2022-08-19T22:35:52.187Z,0.60
2022-08-19T22:38:19.489Z,0.60
2022-08-19T22:40:48.491Z,0.60
2022-08-19T22:43:19.189Z,0.70
2022-08-19T22:45:47.873Z,0.60
2022-08-19T22:48:17.571Z,0.80
2022-08-19T22:51:04.984Z,0.50
2022-08-19T22:53:37.251Z,0.47
2022-08-19T22:56:07.034Z,0.70
2022-08-19T22:58:34.292Z,0.60
2022-08-19T23:01:01.770Z,0.70
2022-08-19T23:03:29.026Z,0.60
2022-08-19T23:05:56.354Z,0.60
2022-08-19T23:08:23.801Z,0.90
2022-08-19T23:10:50.800Z,0.70
2022-08-19T23:13:18.473Z,0.80
2022-08-19T23:15:46.878Z,0.60
2022-08-19T23:18:14.393Z,0.68
2022-08-19T23:20:44.186Z,0.80
2022-08-19T23:23:13.312Z,0.65
2022-08-19T23:25:40.830Z,0.60
2022-08-19T23:28:26.436Z,0.50
2022-08-19T23:30:53.859Z,0.68
2022-08-19T23:33:24.984Z,0.60
2022-08-19T23:35:55.634Z,0.60
2022-08-19T23:38:23.888Z,0.40
2022-08-19T23:40:53.337Z,0.60
2022-08-19T23:43:25.084Z,0.60
2022-08-19T23:45:57.436Z,0.77
2022-08-19T23:48:26.242Z,0.50
2022-08-19T23:50:57.206Z,0.50
2022-08-19T23:53:27.870Z,0.60
2022-08-19T23:55:59.051Z,0.47
2022-08-19T23:58:27.774Z,0.70
